Time;durP1;ratioP1;P1;durP2;ratioP2;P2;SDS_P1;SDS_P2;PMS_P1;PMS_P2;Temp;Humidity;BMP_temperature;BMP_pressure;BME280_temperature;BME280_humidity;BME280_pressure;Samples;Min_cycle;Max_cycle;Signal;HPM_P1;HPM_P2
2022/01/27 00:02:26;;;;;;;10.70;6.70;;;;;;;18.33;42.14;102741.47;5014551;28;20402;-70
2022/01/27 00:07:35;;;;;;;12.43;8.25;;;;;;;18.28;42.12;102733.78;5018664;28;20079;-70
2022/01/27 00:12:41;;;;;;;12.23;7.43;;;;;;;18.24;42.10;102726.09;5015448;28;20478;-70
2022/01/27 00:15:11;;;;;;;10.88;7.80;;;;;;;18.23;41.88;102709.44;5015560;28;20026;-70
2022/01/27 00:17:43;;;;;;;13.30;7.53;;;;;;;18.21;42.08;102706.00;5014810;28;20164;-71
2022/01/27 00:20:09;;;;;;;11.23;7.22;;;;;;;18.20;42.35;102693.75;5015177;28;20133;-71
2022/01/27 00:22:35;;;;;;;11.10;6.97;;;;;;;18.17;42.17;102677.25;5015420;28;20022;-70
2022/01/27 00:25:05;;;;;;;11.15;6.70;;;;;;;18.15;41.99;102682.59;5014467;28;20363;-71
2022/01/27 00:27:31;;;;;;;11.27;7.40;;;;;;;18.14;42.12;102675.59;5015113;28;20026;-70
2022/01/27 00:29:56;;;;;;;9.73;7.07;;;;;;;18.12;41.99;102680.97;5015423;28;20037;-70
2022/01/27 00:32:22;;;;;;;11.07;7.32;;;;;;;18.10;42.30;102682.84;5014285;28;20048;-70
2022/01/27 00:34:47;;;;;;;11.25;7.50;;;;;;;18.09;41.95;102689.03;5015394;28;20025;-70
2022/01/27 00:37:18;;;;;;;10.53;6.87;;;;;;;18.07;42.16;102690.91;5014797;28;20022;-71
2022/01/27 00:39:43;;;;;;;12.18;7.28;;;;;;;18.05;42.11;102690.13;5014048;28;20318;-70
2022/01/27 00:42:09;;;;;;;11.53;7.47;;;;;;;18.04;42.36;102683.16;5014994;28;20037;-69
2022/01/27 00:44:35;;;;;;;11.05;7.20;;;;;;;18.02;42.20;102679.72;5014958;28;20303;-72
2022/01/27 00:47:01;;;;;;;12.38;7.40;;;;;;;18.00;42.23;102681.59;5014384;28;20042;-71
2022/01/27 00:49:26;;;;;;;12.35;7.55;;;;;;;17.99;42.23;102681.66;5014688;28;20364;-71
2022/01/27 00:51:51;;;;;;;10.55;7.40;;;;;;;17.98;42.23;102674.72;5014131;28;20026;-71
2022/01/27 00:54:21;;;;;;;9.63;7.03;;;;;;;17.95;42.28;102662.53;5014438;28;20474;-70
2022/01/27 00:59:46;;;;;;;11.32;6.97;;;;;;;17.92;42.04;102660.88;5013827;28;20045;-70
2022/01/27 01:02:20;;;;;;;11.32;6.85;;;;;;;17.91;42.23;102650.41;5014285;28;20501;-70
2022/01/27 01:04:55;;;;;;;13.52;7.30;;;;;;;17.89;42.42;102650.47;5014643;28;20037;-70
2022/01/27 01:07:20;;;;;;;;;;;;;;;17.87;42.30;102648.84;5013383;28;20034;-69
2022/01/27 01:15:14;;;;;;;11.65;6.60;;;;;;;17.81;42.52;102649.16;5014427;28;20497;-70
2022/01/27 01:17:58;;;;;;;10.50;6.53;;;;;;;17.78;42.52;102636.97;5015235;28;20042;-70
2022/01/27 01:20:42;;;;;;;9.23;6.33;;;;;;;17.79;42.28;102629.94;5013981;28;20094;-70
2022/01/27 01:33:57;;;;;;;10.25;6.82;;;;;;;17.82;42.21;102632.41;5020620;28;20381;-70
2022/01/27 01:36:35;;;;;;;11.32;6.60;;;;;;;17.84;42.27;102625.25;5021314;28;20061;-70
2022/01/27 01:39:01;;;;;;;12.32;7.47;;;;;;;17.86;41.73;102624.22;5022278;28;20054;-69
2022/01/27 01:41:26;;;;;;;10.13;6.65;;;;;;;17.88;41.81;102625.06;5021634;28;20026;-70
2022/01/27 01:43:51;;;;;;;10.73;6.63;;;;;;;17.89;41.85;102607.44;5021274;28;20026;-70
2022/01/27 01:46:16;;;;;;;9.15;6.57;;;;;;;17.90;41.44;102591.53;5013969;28;20445;-69
2022/01/27 01:48:42;;;;;;;10.50;6.80;;;;;;;17.91;41.33;102585.34;5017959;28;20030;-69
2022/01/27 01:51:13;;;;;;;9.23;6.25;;;;;;;17.91;41.47;102589.75;5019025;28;20321;-69
2022/01/27 01:53:39;;;;;;;10.25;6.72;;;;;;;17.92;41.48;102573.00;5013938;28;20037;-70
2022/01/27 01:56:05;;;;;;;9.20;6.57;;;;;;;17.92;41.27;102588.81;5013298;28;20042;-70
2022/01/27 01:58:30;;;;;;;9.02;6.65;;;;;;;17.93;41.57;102585.25;5013735;28;20290;-70
2022/01/27 02:00:56;;;;;;;9.48;6.47;;;;;;;17.92;41.47;102599.38;5013684;28;20458;-71
2022/01/27 02:03:21;;;;;;;9.35;6.22;;;;;;;17.91;41.71;102590.63;5012622;28;20076;-68
2022/01/27 02:05:52;;;;;;;13.23;6.35;;;;;;;17.90;41.64;102588.91;5013806;28;20129;-70
2022/01/27 02:19:20;;;;;;;9.07;6.43;;;;;;;17.89;41.67;102541.50;5012282;28;20088;-71
2022/01/27 02:21:52;;;;;;;9.48;6.18;;;;;;;17.89;41.73;102539.69;5013363;28;20029;-70
2022/01/27 02:24:19;;;;;;;11.73;6.80;;;;;;;17.88;41.85;102545.06;5012464;28;20145;-69
2022/01/27 02:26:48;;;;;;;10.40;6.43;;;;;;;17.88;41.80;102535.38;5013456;28;20033;-70
2022/01/27 02:29:13;;;;;;;11.60;6.70;;;;;;;17.90;42.01;102549.34;5012809;28;20128;-70
2022/01/27 02:31:39;;;;;;;10.23;6.15;;;;;;;17.92;42.07;102546.63;5012443;28;20707;-70
2022/01/27 02:34:08;;;;;;;8.88;6.05;;;;;;;17.92;41.96;102558.00;5012811;28;20032;-70
2022/01/27 02:36:33;;;;;;;10.07;6.03;;;;;;;17.93;41.91;102549.16;5013092;28;20026;-70
2022/01/27 02:38:59;;;;;;;10.25;6.00;;;;;;;17.93;41.43;102551.81;5012222;28;20049;-69
2022/01/27 02:41:27;;;;;;;10.88;6.05;;;;;;;17.94;41.43;102550.00;5012817;28;20038;-70
2022/01/27 02:43:54;;;;;;;10.75;6.40;;;;;;;17.95;41.46;102551.72;5013042;28;20057;-70
2022/01/27 02:46:24;;;;;;;11.38;6.30;;;;;;;17.94;41.35;102540.34;5011708;28;20034;-70
2022/01/27 02:48:52;;;;;;;8.90;5.72;;;;;;;17.93;41.54;102535.13;5012822;28;20034;-70
2022/01/27 02:51:18;;;;;;;9.35;6.00;;;;;;;17.93;41.62;102535.97;5012100;28;20426;-69
2022/01/27 02:53:44;;;;;;;8.98;5.65;;;;;;;17.92;41.42;102536.91;5012620;28;20481;-69
2022/01/27 02:56:09;;;;;;;9.60;5.68;;;;;;;17.92;41.55;102533.41;5012504;28;20053;-69
2022/01/27 02:58:34;;;;;;;8.90;5.78;;;;;;;17.91;41.35;102518.53;5012017;28;20030;-69
2022/01/27 03:01:00;;;;;;;10.63;5.68;;;;;;;17.91;41.41;102524.66;5012812;28;20466;-69
2022/01/27 03:03:25;;;;;;;8.80;5.80;;;;;;;17.90;41.45;102508.94;5012497;28;20045;-69
2022/01/27 03:05:50;;;;;;;8.25;5.40;;;;;;;17.89;41.69;102501.94;5012290;28;20125;-68
2022/01/27 03:08:15;;;;;;;8.77;5.72;;;;;;;17.88;41.39;102498.47;5012724;28;20033;-69
2022/01/27 03:10:52;;;;;;;11.13;6.20;;;;;;;17.87;41.82;102490.59;5012451;28;20420;-71
2022/01/27 03:13:17;;;;;;;10.23;5.72;;;;;;;17.88;41.76;102495.81;5011650;28;20038;-69
2022/01/27 03:15:42;;;;;;;12.05;6.18;;;;;;;17.89;42.08;102491.38;5012487;28;20080;-70
2022/01/27 03:18:07;;;;;;;10.25;6.10;;;;;;;17.88;42.05;102498.47;5012194;28;20080;-70
2022/01/27 03:20:34;;;;;;;11.13;6.20;;;;;;;17.90;41.84;102511.56;5011999;28;20435;-69
2022/01/27 03:23:00;;;;;;;8.95;5.93;;;;;;;17.90;42.04;102507.13;5012654;28;20280;-70
2022/01/27 03:25:25;;;;;;;9.25;6.03;;;;;;;17.90;41.89;102488.66;5012108;28;20359;-69
2022/01/27 03:27:51;;;;;;;9.98;6.13;;;;;;;17.92;41.67;102484.16;5011691;28;20038;-70
2022/01/27 03:30:17;;;;;;;9.68;6.30;;;;;;;17.92;41.58;102478.03;5013967;28;20029;-68
2022/01/27 03:32:42;;;;;;;12.30;6.50;;;;;;;17.92;41.58;102476.22;5016282;28;20022;-69
2022/01/27 03:35:08;;;;;;;10.25;6.03;;;;;;;17.92;41.51;102472.75;5015244;28;20038;-69
2022/01/27 03:37:33;;;;;;;9.02;5.97;;;;;;;17.92;41.84;102464.84;5016084;28;20108;-69
2022/01/27 03:39:59;;;;;;;9.57;5.82;;;;;;;17.91;42.04;102469.28;5016034;28;20088;-70
2022/01/27 03:42:25;;;;;;;9.70;5.72;;;;;;;17.92;41.96;102457.78;5015100;28;20160;-69
2022/01/27 03:44:50;;;;;;;10.15;5.85;;;;;;;17.94;42.12;102473.50;5016090;28;20164;-70
2022/01/27 03:47:16;;;;;;;8.48;5.80;;;;;;;17.94;42.04;102468.25;5015720;28;20064;-69
2022/01/27 03:49:41;;;;;;;9.80;5.72;;;;;;;17.95;42.36;102473.44;5015320;28;20434;-69
2022/01/27 03:52:06;;;;;;;12.18;5.97;;;;;;;17.97;42.16;102469.88;5015853;28;20041;-70
2022/01/27 03:54:32;;;;;;;9.10;5.88;;;;;;;17.95;42.08;102467.31;5015299;28;20049;-70
2022/01/27 03:57:01;;;;;;;9.85;5.70;;;;;;;17.98;41.91;102472.44;5015540;28;20049;-70
2022/01/27 03:59:26;;;;;;;9.02;6.28;;;;;;;17.98;42.10;102476.84;5015499;28;20042;-69
2022/01/27 04:01:53;;;;;;;9.70;5.88;;;;;;;17.98;41.89;102463.66;5015093;28;20500;-69
2022/01/27 04:04:18;;;;;;;9.32;5.85;;;;;;;17.96;41.88;102453.19;5015631;28;20080;-70
2022/01/27 04:06:43;;;;;;;9.75;5.80;;;;;;;17.96;41.86;102445.28;5015524;28;20018;-71
2022/01/27 04:09:10;;;;;;;10.40;5.63;;;;;;;17.97;41.71;102448.75;5014418;28;20076;-69
2022/01/27 04:11:37;;;;;;;11.35;5.95;;;;;;;17.96;41.92;102442.66;5015634;28;20117;-71
2022/01/27 04:14:06;;;;;;;10.82;5.50;;;;;;;17.97;42.22;102439.06;5015374;28;20038;-70
2022/01/27 04:16:31;;;;;;;10.45;6.30;;;;;;;17.96;42.04;102432.09;5014491;28;20032;-70
2022/01/27 04:18:57;;;;;;;10.35;5.45;;;;;;;17.98;42.18;102424.09;5015665;28;20381;-69
2022/01/27 04:21:25;;;;;;;9.55;5.50;;;;;;;17.98;42.51;102417.03;5015286;28;20034;-69
2022/01/27 04:23:51;;;;;;;9.80;5.78;;;;;;;17.98;42.13;102424.94;5014771;28;20105;-70
2022/01/27 04:26:20;;;;;;;10.75;5.85;;;;;;;17.99;41.91;102425.78;5015094;28;20080;-69
2022/01/27 04:28:48;;;;;;;10.02;5.93;;;;;;;17.99;42.17;102428.41;5015246;28;20030;-69
2022/01/27 04:31:13;;;;;;;9.50;5.70;;;;;;;17.98;42.18;102424.09;5014402;28;20057;-69
2022/01/27 04:33:39;;;;;;;10.80;5.82;;;;;;;17.97;42.15;102428.50;5015265;28;20076;-70
2022/01/27 04:36:20;;;;;;;9.68;5.25;;;;;;;17.97;41.82;102433.78;5015183;28;20490;-70
2022/01/27 04:38:56;;;;;;;9.20;5.47;;;;;;;17.97;41.80;102423.22;5014619;28;20022;-71
2022/01/27 04:41:32;;;;;;;11.45;5.82;;;;;;;17.95;42.08;102415.41;5014093;28;20044;-71
2022/01/27 04:44:29;;;;;;;9.85;5.35;;;;;;;17.97;42.32;102401.28;5014539;28;20050;-70
2022/01/27 04:49:12;;;;;;;8.27;4.75;;;;;;;17.98;42.58;102416.19;5014720;28;20030;-69
2022/01/27 04:51:57;;;;;;;9.50;5.35;;;;;;;17.98;42.48;102401.19;5014062;28;20034;-70
2022/01/27 04:56:48;;;;;;;9.07;5.33;;;;;;;18.00;42.18;102395.84;5014942;28;20080;-70
2022/01/27 04:59:21;;;;;;;9.20;5.35;;;;;;;17.99;42.54;102408.19;5013873;28;20290;-70
2022/01/27 05:01:56;;;;;;;10.90;5.53;;;;;;;17.99;42.38;102392.34;5014857;28;20025;-70
2022/01/27 05:04:24;;;;;;;9.60;5.80;;;;;;;17.99;42.34;102384.44;5014162;28;20072;-71
2022/01/27 05:06:51;;;;;;;11.50;5.50;;;;;;;18.00;42.08;102375.56;5014060;28;20140;-70
2022/01/27 05:09:16;;;;;;;9.35;5.43;;;;;;;17.98;42.17;102374.81;5014117;28;20545;-70
2022/01/27 05:11:52;;;;;;;7.88;4.97;;;;;;;17.98;42.14;102371.34;5014537;28;20030;-69
2022/01/27 05:14:22;;;;;;;10.07;5.15;;;;;;;17.98;41.80;102376.63;5013600;28;20493;-70
2022/01/27 05:16:50;;;;;;;8.85;5.10;;;;;;;17.99;42.40;102378.31;5014425;28;20034;-70
2022/01/27 05:19:16;;;;;;;10.35;4.95;;;;;;;18.00;42.61;102370.31;5013435;28;20057;-70
2022/01/27 05:21:42;;;;;;;9.88;5.63;;;;;;;18.01;42.41;102368.50;5014338;28;20026;-70
2022/01/27 05:24:08;;;;;;;9.45;5.43;;;;;;;18.02;42.29;102365.78;5013934;28;20385;-69
2022/01/27 05:26:38;;;;;;;7.25;4.72;;;;;;;18.02;42.18;102365.78;5013213;28;20022;-70
2022/01/27 05:29:04;;;;;;;8.77;4.78;;;;;;;18.03;42.42;102358.72;5014033;28;20049;-70
2022/01/27 05:31:29;;;;;;;10.68;5.70;;;;;;;18.01;42.19;102360.59;5013711;28;20041;-70
2022/01/27 05:33:55;;;;;;;7.85;5.05;;;;;;;18.02;42.01;102360.50;5013761;28;20466;-69
2022/01/27 05:36:23;;;;;;;10.45;5.75;;;;;;;18.00;42.12;102338.66;5013862;28;20064;-70
2022/01/27 05:38:48;;;;;;;9.43;5.28;;;;;;;18.00;42.12;102337.81;5014253;28;20030;-70
2022/01/27 05:41:15;;;;;;;9.40;5.03;;;;;;;17.98;42.22;102332.63;5012866;28;20380;-69
2022/01/27 05:43:42;;;;;;;8.13;5.03;;;;;;;18.00;42.20;102343.91;5013938;28;20076;-70
2022/01/27 05:46:08;;;;;;;8.00;4.90;;;;;;;18.01;42.26;102344.75;5013494;28;20049;-70
2022/01/27 05:48:33;;;;;;;9.35;5.78;;;;;;;17.99;42.63;102336.97;5013120;28;20054;-70
2022/01/27 05:50:58;;;;;;;8.00;5.00;;;;;;;18.02;42.70;102347.31;5013729;28;20042;-71
2022/01/27 05:53:24;;;;;;;10.60;5.50;;;;;;;18.02;42.49;102334.13;5012971;28;20032;-71
2022/01/27 05:55:53;;;;;;;10.45;5.63;;;;;;;18.04;42.27;102341.94;5013054;28;20029;-70
2022/01/27 05:58:19;;;;;;;8.52;5.22;;;;;;;18.02;42.49;102344.66;5013214;28;20124;-70
2022/01/27 06:00:44;;;;;;;8.75;5.15;;;;;;;18.02;42.13;102328.84;5013847;28;20034;-71
2022/01/27 06:03:10;;;;;;;11.02;5.57;;;;;;;18.02;42.15;102338.56;5012638;28;20080;-70
2022/01/27 06:05:38;;;;;;;11.40;5.10;;;;;;;18.03;42.38;102333.19;5013524;28;20508;-70
2022/01/27 06:08:03;;;;;;;9.98;5.40;;;;;;;18.05;43.13;102328.66;5013454;28;20267;-71
2022/01/27 06:10:28;;;;;;;8.55;4.80;;;;;;;18.06;43.30;102330.38;5012119;28;20029;-70
2022/01/27 06:12:58;;;;;;;10.32;4.63;;;;;;;18.10;43.58;102334.56;5013207;28;20490;-70
2022/01/27 06:15:25;;;;;;;10.45;5.55;;;;;;;18.10;43.55;102321.38;5011592;28;20073;-70
2022/01/27 06:17:50;;;;;;;8.68;4.68;;;;;;;18.13;43.70;102323.81;5013413;28;20108;-71
2022/01/27 06:20:17;;;;;;;11.43;5.05;;;;;;;18.16;43.94;102320.13;5013012;28;20118;-70
2022/01/27 06:22:43;;;;;;;8.30;4.55;;;;;;;18.18;44.34;102320.91;5012476;28;20073;-70
2022/01/27 06:25:09;;;;;;;8.88;4.40;;;;;;;18.21;44.73;102333.06;5012811;28;20029;-69
2022/01/27 06:27:35;;;;;;;11.20;5.68;;;;;;;18.19;43.01;102322.59;5012794;28;20057;-70
2022/01/27 06:30:02;;;;;;;8.27;4.70;;;;;;;18.21;44.25;102311.97;5012448;28;20030;-70
2022/01/27 06:32:27;;;;;;;9.43;3.80;;;;;;;18.23;44.27;102315.34;5012741;28;20030;-71
2022/01/27 06:34:52;;;;;;;9.40;4.20;;;;;;;18.24;44.43;102314.41;5013067;28;20069;-70
2022/01/27 06:37:17;;;;;;;8.57;4.37;;;;;;;18.28;44.53;102318.59;5011976;28;20275;-70
2022/01/27 06:39:43;;;;;;;9.57;4.35;;;;;;;18.28;44.64;102313.31;5012217;28;20374;-69
2022/01/27 06:42:08;;;;;;;9.40;4.45;;;;;;;18.33;44.52;102313.88;5012515;28;20044;-70
2022/01/27 06:44:37;;;;;;;8.95;4.72;;;;;;;18.33;44.88;102308.59;5012263;28;20048;-69
2022/01/27 06:47:03;;;;;;;8.32;3.85;;;;;;;18.36;44.70;102303.16;5012988;28;20046;-68
2022/01/27 06:49:28;;;;;;;8.70;4.88;;;;;;;18.37;44.90;102296.06;5012283;28;20057;-68
2022/01/27 06:51:53;;;;;;;6.80;3.75;;;;;;;18.38;45.00;102284.59;5012021;28;20046;-68
2022/01/27 06:54:21;;;;;;;8.80;4.50;;;;;;;18.40;44.63;102280.06;5012483;28;20042;-68
2022/01/27 06:56:47;;;;;;;7.63;4.20;;;;;;;18.41;45.25;102294.97;5012631;28;20033;-71
2022/01/27 06:59:13;;;;;;;7.47;3.65;;;;;;;18.43;44.57;102303.63;5011852;28;20065;-71
2022/01/27 07:01:39;;;;;;;7.90;4.20;;;;;;;18.46;44.57;102298.16;5012628;28;20044;-71
2022/01/27 07:04:07;;;;;;;8.98;3.78;;;;;;;18.47;44.79;102292.81;5012143;28;20028;-71
2022/01/27 07:06:33;;;;;;;7.20;3.80;;;;;;;18.51;44.47;102289.97;5011881;28;20034;-69
2022/01/27 07:08:59;;;;;;;6.82;3.65;;;;;;;18.53;44.79;102290.72;5012507;28;20037;-69
2022/01/27 07:11:24;;;;;;;8.20;3.90;;;;;;;18.54;44.38;102303.84;5011964;28;20046;-69
2022/01/27 07:13:50;;;;;;;7.53;3.78;;;;;;;18.55;44.53;102308.19;5011668;28;20404;-70
2022/01/27 07:16:15;;;;;;;9.77;3.83;;;;;;;18.55;44.47;102294.97;5012490;28;20030;-69
2022/01/27 07:18:40;;;;;;;7.75;3.65;;;;;;;18.58;44.41;102297.44;5011749;28;20549;-69
2022/01/27 07:21:06;;;;;;;6.90;3.50;;;;;;;18.60;44.46;102294.72;5012592;28;20393;-71
2022/01/27 07:23:31;;;;;;;7.72;3.58;;;;;;;18.61;44.89;102305.19;5012284;28;20157;-72
2022/01/27 07:25:57;;;;;;;8.57;3.50;;;;;;;18.62;44.62;102306.03;5011595;28;20029;-69
2022/01/27 07:28:22;;;;;;;6.82;3.70;;;;;;;18.63;44.39;102307.72;5012000;28;20126;-71
2022/01/27 07:30:47;;;;;;;6.93;3.58;;;;;;;18.66;44.83;102307.53;5012489;28;20030;-71
2022/01/27 07:33:12;;;;;;;6.80;3.27;;;;;;;18.67;44.81;102312.72;5011414;28;20026;-72
2022/01/27 07:35:38;;;;;;;6.80;3.60;;;;;;;18.67;44.87;102310.09;5012356;28;20285;-70
2022/01/27 07:38:05;;;;;;;7.88;3.95;;;;;;;18.71;44.34;102309.88;5012438;28;20279;-70
2022/01/27 07:40:30;;;;;;;9.45;4.60;;;;;;;18.72;44.74;102308.94;5010938;28;20058;-69
2022/01/27 07:42:55;;;;;;;8.02;3.85;;;;;;;18.73;44.39;102319.41;5012459;28;20025;-75
2022/01/27 07:45:21;;;;;;;9.13;3.70;;;;;;;18.74;45.05;102310.56;5011982;28;20034;-68
2022/01/27 07:47:46;;;;;;;6.90;3.47;;;;;;;18.77;44.93;102306.88;5011715;28;20478;-69
2022/01/27 07:50:11;;;;;;;7.65;3.78;;;;;;;18.78;44.71;102306.78;5011894;28;20733;-69
2022/01/27 07:52:37;;;;;;;6.60;3.38;;;;;;;18.80;44.91;102307.56;5012175;28;20442;-69
2022/01/27 07:55:02;;;;;;;7.15;3.35;;;;;;;18.80;44.75;102310.19;5011469;28;20084;-71
2022/01/27 07:57:30;;;;;;;8.05;3.80;;;;;;;18.81;44.92;102311.03;5011930;28;20057;-69
2022/01/27 07:59:56;;;;;;;8.18;3.83;;;;;;;18.83;45.05;102307.38;5012601;28;20101;-70
2022/01/27 08:02:24;;;;;;;8.35;3.45;;;;;;;18.85;45.11;102317.88;5011260;28;20509;-70
2022/01/27 08:04:49;;;;;;;9.50;4.13;;;;;;;18.87;45.03;102323.91;5012049;28;20351;-70
2022/01/27 08:07:17;;;;;;;9.27;4.10;;;;;;;18.89;45.30;102329.09;5011971;28;20033;-71
2022/01/27 08:09:42;;;;;;;9.38;4.78;;;;;;;18.90;45.08;102323.72;5010966;28;20058;-71
2022/01/27 08:12:08;;;;;;;10.57;4.80;;;;;;;18.91;45.24;102330.69;5012003;28;20038;-70
2022/01/27 08:14:33;;;;;;;9.57;4.90;;;;;;;18.91;45.15;102328.03;5012190;28;20096;-71
2022/01/27 08:16:58;;;;;;;9.50;5.40;;;;;;;18.92;45.17;102318.34;5013021;28;20168;-72
2022/01/27 08:19:23;;;;;;;11.45;4.90;;;;;;;18.91;45.46;102325.41;5015224;28;20313;-70
2022/01/27 08:21:58;;;;;;;9.13;4.32;;;;;;;18.92;45.20;102315.69;5017154;28;20090;-71
2022/01/27 08:24:29;;;;;;;8.52;4.13;;;;;;;18.99;45.59;102317.00;5016551;28;20541;-73
2022/01/27 08:27:01;;;;;;;8.73;3.97;;;;;;;19.11;45.63;102310.13;5018909;28;20026;-72
2022/01/27 08:29:33;;;;;;;8.02;4.03;;;;;;;19.21;45.56;102316.50;5015216;28;20053;-71
2022/01/27 08:32:02;;;;;;;8.00;3.97;;;;;;;19.29;45.50;102316.88;5015803;28;20037;-70
2022/01/27 08:34:37;;;;;;;7.90;3.78;;;;;;;19.37;45.20;102311.09;5017409;28;20037;-72
2022/01/27 08:37:08;;;;;;;8.10;4.35;;;;;;;19.42;45.38;102301.09;5015045;28;20030;-72
2022/01/27 08:39:35;;;;;;;8.00;4.03;;;;;;;19.49;45.11;102299.75;5015721;28;20400;-74
2022/01/27 08:42:00;;;;;;;11.30;4.35;;;;;;;19.54;44.89;102294.19;5016133;28;20033;-73
2022/01/27 08:44:26;;;;;;;8.95;4.22;;;;;;;19.60;45.01;102293.78;5015407;28;20129;-69
2022/01/27 08:46:54;;;;;;;9.57;4.50;;;;;;;19.68;45.15;102304.72;5015471;28;20374;-69
2022/01/27 08:49:23;;;;;;;10.82;4.55;;;;;;;19.73;45.14;102297.31;5014779;28;20410;-70
2022/01/27 08:51:51;;;;;;;10.15;5.13;;;;;;;19.78;44.90;102302.34;5014614;28;20148;-74
2022/01/27 08:54:16;;;;;;;9.52;4.60;;;;;;;19.80;44.66;102303.06;5015600;28;20034;-75
2022/01/27 08:56:42;;;;;;;8.45;4.28;;;;;;;19.85;45.00;102301.00;5015163;28;20041;-73
2022/01/27 08:59:07;;;;;;;11.13;4.30;;;;;;;19.88;44.69;102300.78;5015299;28;20030;-76
2022/01/27 09:01:36;;;;;;;10.65;4.30;;;;;;;19.90;44.42;102290.09;5016599;28;20037;-74
2022/01/27 09:04:04;;;;;;;11.88;5.30;;;;;;;19.94;44.64;102295.09;5015097;28;20034;-72
2022/01/27 09:06:29;;;;;;;7.95;4.10;;;;;;;19.97;44.36;102304.63;5015727;28;20398;-76
2022/01/27 09:08:55;;;;;;;9.90;4.13;;;;;;;19.98;44.72;102301.03;5015423;28;20494;-76
2022/01/27 09:11:21;;;;;;;12.68;4.32;;;;;;;20.00;44.37;102295.66;5013759;28;20046;-76
2022/01/27 09:13:46;;;;;;;12.48;4.15;;;;;;;19.99;44.55;102302.72;5017632;28;20053;-77
2022/01/27 09:16:11;;;;;;;11.03;4.20;;;;;;;19.98;44.71;102282.53;5015946;28;20025;-76
2022/01/27 09:18:37;;;;;;;8.45;4.38;;;;;;;20.03;44.54;102303.38;5014188;28;20305;-70
2022/01/27 09:21:09;;;;;;;12.90;5.05;;;;;;;20.02;44.37;102293.75;5014400;28;20048;-75
2022/01/27 09:23:38;;;;;;;7.18;4.22;;;;;;;20.00;44.36;102299.13;5017954;28;20037;-76
2022/01/27 09:26:08;;;;;;;10.50;4.90;;;;;;;20.00;44.73;102296.50;5017169;28;20116;-76
2022/01/27 09:28:34;;;;;;;10.60;4.38;;;;;;;19.98;44.85;102295.75;5015033;28;20030;-77
2022/01/27 09:31:08;;;;;;;7.47;4.28;;;;;;;19.97;44.53;102291.41;5014595;28;20052;-73
2022/01/27 09:33:33;;;;;;;11.07;4.45;;;;;;;19.96;44.65;102292.34;5013335;28;20385;-74
2022/01/27 09:35:59;;;;;;;10.33;5.10;;;;;;;19.93;44.83;102293.41;5014347;28;20116;-76
2022/01/27 09:38:36;;;;;;;11.80;4.68;;;;;;;19.90;44.90;102298.91;5013908;28;20764;-76
2022/01/27 09:41:07;;;;;;;9.18;4.40;;;;;;;19.87;44.76;102301.75;5013296;28;20049;-75
2022/01/27 09:43:34;;;;;;;8.40;3.85;;;;;;;19.87;44.92;102288.50;5014546;28;20022;-75
2022/01/27 09:46:04;;;;;;;10.90;4.70;;;;;;;19.88;45.04;102298.13;5014808;28;20022;-77
2022/01/27 09:48:36;;;;;;;10.20;4.35;;;;;;;19.89;44.94;102296.34;5013173;28;20045;-73
2022/01/27 09:51:25;;;;;;;9.68;4.30;;;;;;;19.89;45.02;102299.84;5014577;28;20105;-73
2022/01/27 09:53:53;;;;;;;9.23;4.90;;;;;;;19.88;44.91;102300.78;5013911;28;20117;-71
2022/01/27 09:56:19;;;;;;;12.32;4.35;;;;;;;19.89;45.07;102307.78;5014137;28;20109;-76
2022/01/27 09:58:45;;;;;;;8.02;3.92;;;;;;;19.86;44.87;102307.13;5014318;28;20030;-77
2022/01/27 10:01:10;;;;;;;10.20;4.30;;;;;;;19.85;44.71;102310.72;5013840;28;20489;-74
2022/01/27 10:03:56;;;;;;;8.45;3.97;;;;;;;19.84;44.66;102303.75;5013512;28;20038;-76
2022/01/27 10:06:27;;;;;;;7.57;4.28;;;;;;;19.86;44.48;102312.44;5013845;28;20029;-76
2022/01/27 10:09:20;;;;;;;12.30;5.00;;;;;;;19.85;44.84;102316.88;5013179;28;20042;-76
2022/01/27 10:11:49;;;;;;;13.05;4.70;;;;;;;19.83;44.57;102313.47;5013915;28;20083;-76
2022/01/27 10:14:27;;;;;;;10.60;4.20;;;;;;;19.83;44.79;102309.97;5014022;28;20442;-76
2022/01/27 10:16:55;;;;;;;10.52;4.05;;;;;;;19.85;44.97;102310.72;5014239;28;20025;-75
2022/01/27 10:19:22;;;;;;;10.15;3.83;;;;;;;19.83;45.22;102302.88;5014255;28;20030;-74
2022/01/27 10:21:48;;;;;;;10.15;4.55;;;;;;;19.87;44.97;102306.19;5013996;28;20029;-76
2022/01/27 10:24:13;;;;;;;9.07;3.80;;;;;;;19.83;45.00;102316.09;5014567;28;20029;-74
2022/01/27 10:26:45;;;;;;;8.07;3.40;;;;;;;19.78;45.28;102320.03;5013256;28;20508;-73
2022/01/27 10:29:17;;;;;;;7.30;3.47;;;;;;;19.71;45.47;102306.28;5012052;28;20482;-72
2022/01/27 10:31:44;;;;;;;9.13;3.50;;;;;;;19.64;45.32;102307.66;5013337;28;20029;-72
2022/01/27 10:34:10;;;;;;;9.40;4.32;;;;;;;19.58;45.64;102307.09;5012840;28;20600;-73
2022/01/27 10:36:44;;;;;;;10.85;4.10;;;;;;;19.53;46.08;102303.03;5012098;28;20029;-72
2022/01/27 10:39:12;;;;;;;6.80;3.70;;;;;;;19.49;45.84;102312.13;5011810;28;20042;-70
2022/01/27 10:41:42;;;;;;;9.25;3.90;;;;;;;19.44;45.80;102308.91;5012943;28;20022;-71
2022/01/27 10:44:14;;;;;;;7.60;3.50;;;;;;;19.40;45.74;102314.41;5012133;28;20032;-71
2022/01/27 10:47:01;;;;;;;7.88;3.92;;;;;;;19.37;46.00;102303.19;5012934;28;20465;-72
2022/01/27 10:49:32;;;;;;;6.70;3.50;;;;;;;19.34;46.04;102301.59;5012075;28;20457;-72
2022/01/27 10:51:58;;;;;;;8.80;3.60;;;;;;;19.32;45.86;102306.13;5012922;28;20105;-72
2022/01/27 10:54:37;;;;;;;7.45;3.15;;;;;;;19.32;45.97;102307.91;5015172;28;20439;-75
2022/01/27 10:57:04;;;;;;;7.40;3.42;;;;;;;19.38;46.00;102307.53;5012770;28;20030;-75
2022/01/27 10:59:32;;;;;;;7.72;3.60;;;;;;;19.44;46.06;102309.78;5012843;28;20030;-75
2022/01/27 11:01:58;;;;;;;9.63;3.58;;;;;;;19.50;45.87;102301.47;5013689;28;20096;-75
2022/01/27 11:04:34;;;;;;;9.02;3.42;;;;;;;19.53;45.58;102303.03;5012835;28;20092;-73
2022/01/27 11:07:02;;;;;;;7.57;3.47;;;;;;;19.48;44.73;102308.63;5012673;28;20088;-73
2022/01/27 11:09:33;;;;;;;12.65;3.22;;;;;;;19.42;45.50;102298.44;5013423;28;20034;-73
2022/01/27 11:11:59;;;;;;;6.35;2.92;;;;;;;19.44;45.96;102301.00;5013711;28;20026;-75
2022/01/27 11:14:25;;;;;;;6.45;2.95;;;;;;;19.45;45.62;102298.25;5012643;28;20041;-74
2022/01/27 11:16:56;;;;;;;6.78;3.05;;;;;;;19.42;45.83;102284.38;5012640;28;20029;-73
2022/01/27 11:19:53;;;;;;;9.38;4.40;;;;;;;19.26;43.97;102295.94;5011271;28;20030;-72
2022/01/27 11:22:23;;;;;;;5.97;3.30;;;;;;;19.18;45.36;102290.28;5012274;28;20037;-74
2022/01/27 11:25:09;;;;;;;7.22;3.17;;;;;;;19.14;45.92;102284.34;5011957;28;20038;-75
2022/01/27 11:27:44;;;;;;;7.53;3.15;;;;;;;19.13;46.09;102281.81;5012499;28;20553;-75
2022/01/27 11:30:31;;;;;;;11.60;4.95;;;;;;;19.13;46.38;102277.34;5012356;28;20053;-73
2022/01/27 11:33:10;;;;;;;10.10;7.15;;;;;;;19.14;46.54;102273.78;5012029;28;20080;-72
2022/01/27 11:36:06;;;;;;;14.32;9.93;;;;;;;19.13;46.67;102266.78;5012460;28;20133;-73
2022/01/27 11:38:31;;;;;;;14.50;11.70;;;;;;;19.16;46.93;102268.41;5012442;28;20026;-73
2022/01/27 11:40:56;;;;;;;15.70;12.70;;;;;;;19.16;46.93;102266.59;5011526;28;20072;-74
2022/01/27 11:43:33;;;;;;;15.10;13.43;;;;;;;19.16;47.12;102266.59;5011824;28;20038;-75
2022/01/27 11:46:12;;;;;;;14.35;12.85;;;;;;;19.16;46.51;102261.31;5011643;28;20057;-71
2022/01/27 11:48:37;;;;;;;16.05;14.27;;;;;;;19.15;47.12;102262.28;5012590;28;20034;-75
2022/01/27 11:51:12;;;;;;;19.38;14.23;;;;;;;19.15;47.35;102258.75;5014018;28;20213;-70
2022/01/27 11:53:42;;;;;;;15.80;14.20;;;;;;;19.15;47.40;102261.41;5015241;28;20033;-73
2022/01/27 11:56:33;;;;;;;16.95;14.63;;;;;;;19.14;47.56;102255.28;5015889;28;20030;-67
2022/01/27 11:59:36;;;;;;;18.48;13.40;;;;;;;19.15;47.95;102262.28;5015369;28;20120;-75
2022/01/27 12:02:02;;;;;;;16.25;12.68;;;;;;;19.16;47.47;102268.41;5015367;28;20033;-72
2022/01/27 12:04:30;;;;;;;15.75;12.85;;;;;;;19.16;47.67;102263.94;5015370;28;20034;-72
2022/01/27 12:06:56;;;;;;;14.10;12.15;;;;;;;19.17;47.47;102259.53;5015007;28;20448;-74
2022/01/27 12:09:21;;;;;;;14.32;12.10;;;;;;;19.18;47.74;102248.00;5015149;28;20050;-73